Time;durP1;ratioP1;P1;durP2;ratioP2;P2;SDS_P1;SDS_P2;PMS_P1;PMS_P2;Temp;Humidity;BMP_temperature;BMP_pressure;BME280_temperature;BME280_humidity;BME280_pressure;Samples;Min_cycle;Max_cycle;Signal;HPM_P1;HPM_P2
2023/03/07 05:02:34;;;;;;;4.70;4.50;;;3.00;99.90;;;;;;4952976;23;20592;-71
2023/03/07 05:05:01;;;;;;;16.27;1.60;;;2.90;99.90;;;;;;4938351;29;20212;-70
2023/03/07 05:07:28;;;;;;;0.75;0.75;;;2.90;99.90;;;;;;4942633;29;20222;-71
2023/03/07 05:09:55;;;;;;;1.95;1.85;;;2.90;99.90;;;;;;4929027;29;20240;-72
2023/03/07 05:12:22;;;;;;;9.63;2.95;;;2.90;99.90;;;;;;4938865;29;20588;-72
2023/03/07 05:14:49;;;;;;;3.70;0.80;;;2.90;99.90;;;;;;4921436;29;20202;-72
2023/03/07 05:17:16;;;;;;;3.60;1.80;;;2.90;99.90;;;;;;4923774;29;20210;-72
2023/03/07 05:19:44;;;;;;;1.42;1.42;;;2.90;99.90;;;;;;4939232;29;20206;-72
2023/03/07 05:22:11;;;;;;;0.93;0.85;;;2.90;99.90;;;;;;4934019;28;20233;-72
2023/03/07 05:24:37;;;;;;;2.88;1.77;;;2.90;99.90;;;;;;4924806;29;20577;-72
2023/03/07 05:27:05;;;;;;;2.38;2.28;;;3.00;99.90;;;;;;4921706;29;20209;-72
2023/03/07 05:29:31;;;;;;;0.80;0.80;;;3.00;99.90;;;;;;4927772;29;20261;-72
2023/03/07 05:31:58;;;;;;;2.35;1.25;;;3.00;99.90;;;;;;4916990;29;20234;-69
2023/03/07 05:34:25;;;;;;;0.63;0.63;;;3.10;99.90;;;;;;4922756;29;20290;-72
2023/03/07 05:36:53;;;;;;;0.68;0.68;;;3.10;99.90;;;;;;4941175;29;20207;-72
2023/03/07 05:39:20;;;;;;;0.93;0.93;;;3.20;99.90;;;;;;4931099;29;20305;-72
2023/03/07 05:41:46;;;;;;;1.23;1.23;;;3.20;99.90;;;;;;4927949;29;20698;-73
2023/03/07 05:44:13;;;;;;;12.68;1.83;;;3.20;99.90;;;;;;4925986;29;20214;-72
2023/03/07 05:46:40;;;;;;;1.15;1.15;;;3.20;99.90;;;;;;4921143;29;20207;-71
2023/03/07 05:49:07;;;;;;;5.40;2.05;;;3.20;99.90;;;;;;4916297;29;20238;-70
2023/03/07 05:51:33;;;;;;;0.82;0.60;;;3.30;99.90;;;;;;4926407;29;20231;-73
2023/03/07 05:54:01;;;;;;;2.17;1.73;;;3.30;99.90;;;;;;4925603;29;20214;-72
2023/03/07 05:56:28;;;;;;;3.67;3.47;;;3.30;99.90;;;;;;4920884;29;20217;-72
2023/03/07 05:58:55;;;;;;;4.03;1.02;;;3.30;99.90;;;;;;4925170;29;20209;-70
2023/03/07 06:01:21;;;;;;;0.47;0.47;;;3.30;99.90;;;;;;4926379;29;20264;-72
2023/03/07 06:03:48;;;;;;;1.23;1.05;;;3.30;99.90;;;;;;4928104;29;20217;-72
2023/03/07 06:06:15;;;;;;;1.33;1.33;;;3.40;99.90;;;;;;4926039;29;20209;-71
2023/03/07 06:08:42;;;;;;;0.65;0.65;;;3.40;99.90;;;;;;4924434;29;20718;-72
2023/03/07 06:11:10;;;;;;;0.70;0.70;;;3.40;99.90;;;;;;4934492;29;20274;-71
2023/03/07 06:13:37;;;;;;;0.43;0.43;;;3.40;99.90;;;;;;4927963;28;20268;-70
2023/03/07 06:16:04;;;;;;;0.22;0.22;;;3.30;99.90;;;;;;4922882;29;20570;-71
2023/03/07 06:18:31;;;;;;;0.40;0.40;;;3.30;99.90;;;;;;4923666;29;20209;-71
2023/03/07 06:20:59;;;;;;;0.80;0.80;;;3.30;99.90;;;;;;4924932;29;20230;-70
2023/03/07 06:23:26;;;;;;;0.40;0.40;;;3.30;99.90;;;;;;4922430;29;20582;-70
2023/03/07 06:25:53;;;;;;;0.15;0.15;;;3.30;99.90;;;;;;4924767;29;20258;-71
2023/03/07 06:28:21;;;;;;;2.75;0.70;;;3.40;99.90;;;;;;4922280;29;20694;-70
2023/03/07 06:30:48;;;;;;;0.75;0.75;;;3.40;99.90;;;;;;4918920;29;20268;-67
2023/03/07 06:33:15;;;;;;;0.20;0.20;;;3.40;99.90;;;;;;4922793;29;20210;-71
2023/03/07 06:35:43;;;;;;;1.05;1.05;;;3.40;99.90;;;;;;4919576;29;20206;-71
2023/03/07 06:38:11;;;;;;;1.42;1.35;;;3.40;99.90;;;;;;4931402;29;20664;-70
2023/03/07 06:40:38;;;;;;;0.93;0.55;;;3.40;99.90;;;;;;4923545;29;20917;-71
2023/03/07 06:43:05;;;;;;;0.45;0.45;;;3.40;99.90;;;;;;4922284;29;20234;-71
2023/03/07 06:45:33;;;;;;;2.08;1.27;;;3.40;99.90;;;;;;4925390;29;20830;-71
2023/03/07 06:48:00;;;;;;;0.82;0.82;;;3.40;99.90;;;;;;4924050;29;20226;-69
2023/03/07 06:50:26;;;;;;;0.20;0.20;;;3.30;99.90;;;;;;4916335;29;20226;-67
2023/03/07 06:52:53;;;;;;;0.43;0.43;;;3.40;99.90;;;;;;4922940;29;20222;-70
2023/03/07 06:55:20;;;;;;;0.95;0.50;;;3.50;99.90;;;;;;4920761;29;20249;-70
2023/03/07 06:57:47;;;;;;;0.40;0.40;;;3.50;99.90;;;;;;4926321;29;20615;-70
2023/03/07 07:00:14;;;;;;;0.60;0.60;;;3.60;99.90;;;;;;4923271;29;20287;-70
2023/03/07 07:02:43;;;;;;;0.20;0.20;;;3.60;99.90;;;;;;4944127;29;20213;-70
2023/03/07 07:05:09;;;;;;;2.05;0.57;;;3.70;99.90;;;;;;4930517;29;20206;-72
2023/03/07 07:07:36;;;;;;;0.57;0.57;;;3.70;99.90;;;;;;4927250;29;20232;-71
2023/03/07 07:10:03;;;;;;;0.73;0.73;;;3.80;99.90;;;;;;4922965;29;20227;-70
2023/03/07 07:12:30;;;;;;;0.50;0.50;;;3.80;99.90;;;;;;4935623;29;20237;-71
2023/03/07 07:15:00;;;;;;;2.63;0.77;;;3.80;99.90;;;;;;4931819;29;20210;-71
2023/03/07 07:17:27;;;;;;;0.30;0.30;;;3.80;99.90;;;;;;4932301;29;20292;-71
2023/03/07 07:19:56;;;;;;;0.40;0.40;;;3.80;99.90;;;;;;4935976;29;20206;-71
2023/03/07 07:22:22;;;;;;;0.47;0.47;;;3.80;99.90;;;;;;4933172;29;20235;-71
2023/03/07 07:24:49;;;;;;;0.40;0.40;;;3.80;99.90;;;;;;4927940;29;20210;-70
2023/03/07 07:27:16;;;;;;;1.92;1.92;;;3.90;99.90;;;;;;4922250;29;20230;-71
2023/03/07 07:29:43;;;;;;;0.50;0.50;;;3.90;99.90;;;;;;4932235;29;20233;-70
2023/03/07 07:32:10;;;;;;;0.45;0.43;;;3.90;99.90;;;;;;4925784;29;20702;-70
2023/03/07 07:34:37;;;;;;;0.20;0.20;;;4.00;99.90;;;;;;4923812;29;20210;-70
2023/03/07 07:37:05;;;;;;;1.33;0.68;;;4.00;99.90;;;;;;4919868;29;20219;-68
2023/03/07 07:39:32;;;;;;;0.50;0.50;;;4.20;99.90;;;;;;4930897;29;20218;-67
2023/03/07 07:41:58;;;;;;;1.10;0.60;;;4.30;99.90;;;;;;4921611;29;20234;-68
2023/03/07 07:44:28;;;;;;;0.68;0.55;;;4.20;99.90;;;;;;4922689;29;20217;-67
2023/03/07 07:46:55;;;;;;;1.02;1.02;;;4.20;99.90;;;;;;4927406;29;20207;-68
2023/03/07 07:49:21;;;;;;;2.53;2.28;;;4.20;99.90;;;;;;4931726;29;20240;-67
2023/03/07 07:51:48;;;;;;;1.95;1.85;;;4.30;99.90;;;;;;4917665;29;20298;-67
2023/03/07 07:54:16;;;;;;;0.85;0.85;;;4.30;99.90;;;;;;4922921;29;20316;-67
2023/03/07 07:56:43;;;;;;;0.30;0.30;;;4.30;99.90;;;;;;4925761;29;20288;-67
2023/03/07 07:59:10;;;;;;;0.55;0.55;;;4.30;99.90;;;;;;4918609;29;20194;-67
2023/03/07 08:01:36;;;;;;;1.60;1.52;;;4.30;99.90;;;;;;4926341;29;20241;-67
2023/03/07 08:04:03;;;;;;;0.20;0.20;;;4.40;99.90;;;;;;4934509;29;20773;-67
2023/03/07 08:06:30;;;;;;;2.47;0.60;;;4.50;99.90;;;;;;4933066;29;20217;-67
2023/03/07 08:08:58;;;;;;;0.52;0.52;;;4.50;99.90;;;;;;4932281;29;20233;-67
2023/03/07 08:11:27;;;;;;;0.75;0.75;;;4.50;99.90;;;;;;4929882;29;20277;-67
2023/03/07 08:13:53;;;;;;;1.75;0.82;;;4.60;99.90;;;;;;4924342;29;20211;-67
2023/03/07 08:16:23;;;;;;;2.65;1.27;;;4.60;99.90;;;;;;4925514;29;20206;-67
2023/03/07 08:18:51;;;;;;;0.45;0.45;;;4.70;99.90;;;;;;4915587;29;20202;-67
2023/03/07 08:21:18;;;;;;;0.60;0.60;;;4.70;99.90;;;;;;4916557;29;20244;-67
2023/03/07 08:23:45;;;;;;;0.35;0.32;;;4.80;99.90;;;;;;4924954;29;21101;-68
2023/03/07 08:26:12;;;;;;;0.35;0.35;;;4.90;99.90;;;;;;4928076;29;20682;-67
2023/03/07 08:28:41;;;;;;;8.52;0.88;;;5.00;99.90;;;;;;4927002;29;20257;-67
2023/03/07 08:31:09;;;;;;;0.35;0.35;;;5.00;99.90;;;;;;4934073;29;20232;-68
2023/03/07 08:33:36;;;;;;;4.13;1.20;;;5.00;99.90;;;;;;4948079;28;20214;-68
2023/03/07 08:36:03;;;;;;;1.55;1.17;;;5.00;99.90;;;;;;4923468;29;20222;-68
2023/03/07 08:38:30;;;;;;;0.50;0.45;;;5.10;99.90;;;;;;4932086;29;20309;-68
2023/03/07 08:41:00;;;;;;;0.40;0.40;;;5.10;99.90;;;;;;4926488;29;20238;-68
2023/03/07 08:43:27;;;;;;;0.43;0.43;;;5.20;99.90;;;;;;4924466;29;20240;-68
2023/03/07 08:45:55;;;;;;;0.68;0.68;;;5.20;99.90;;;;;;4937650;29;20206;-68
2023/03/07 08:48:22;;;;;;;0.40;0.40;;;5.30;99.90;;;;;;4918666;29;20222;-67
2023/03/07 08:50:49;;;;;;;0.32;0.32;;;5.30;99.90;;;;;;4927739;29;20233;-68
2023/03/07 08:53:16;;;;;;;0.68;0.40;;;5.40;99.90;;;;;;4922816;29;20683;-68
2023/03/07 08:55:43;;;;;;;2.67;1.10;;;5.50;99.90;;;;;;4925916;29;20225;-68
2023/03/07 08:58:10;;;;;;;4.38;0.82;;;5.50;99.90;;;;;;4932026;29;20228;-68
2023/03/07 09:00:37;;;;;;;1.88;0.98;;;5.50;99.90;;;;;;4929246;29;20333;-68
2023/03/07 09:03:06;;;;;;;0.30;0.30;;;5.60;99.90;;;;;;4920181;29;20276;-69
2023/03/07 09:05:36;;;;;;;0.20;0.20;;;5.60;99.90;;;;;;4921072;29;20214;-68
2023/03/07 09:08:03;;;;;;;0.80;0.80;;;5.60;99.90;;;;;;4922874;29;20206;-68
2023/03/07 09:10:29;;;;;;;3.60;1.42;;;5.70;99.90;;;;;;4924750;29;20265;-68
2023/03/07 09:12:57;;;;;;;2.70;1.17;;;5.70;99.90;;;;;;4926495;29;20203;-68
2023/03/07 09:15:24;;;;;;;0.70;0.70;;;5.70;99.90;;;;;;4931379;29;20210;-68
2023/03/07 09:17:51;;;;;;;0.40;0.40;;;5.80;99.90;;;;;;4919062;29;20321;-66
2023/03/07 09:20:19;;;;;;;0.98;0.93;;;5.80;99.90;;;;;;4930003;29;20213;-68
2023/03/07 09:22:46;;;;;;;2.08;0.68;;;5.80;99.90;;;;;;4933406;29;20630;-69
2023/03/07 09:25:13;;;;;;;0.30;0.30;;;5.80;99.90;;;;;;4924072;29;20286;-68
2023/03/07 09:27:41;;;;;;;1.00;1.00;;;5.70;99.90;;;;;;4925622;29;20206;-68
2023/03/07 09:30:09;;;;;;;0.77;0.60;;;5.60;99.90;;;;;;4932151;29;20583;-69
2023/03/07 09:32:36;;;;;;;0.40;0.30;;;5.60;99.90;;;;;;4926351;29;20234;-70
2023/03/07 09:35:02;;;;;;;0.30;0.30;;;5.70;99.90;;;;;;4933468;29;20214;-68
2023/03/07 09:37:30;;;;;;;1.05;0.65;;;5.60;99.90;;;;;;4937498;29;20215;-69
2023/03/07 09:39:57;;;;;;;0.65;0.65;;;5.60;99.90;;;;;;4929134;29;20213;-69
2023/03/07 09:42:28;;;;;;;42.60;1.58;;;5.60;99.90;;;;;;4924651;29;20229;-68
2023/03/07 09:45:08;;;;;;;0.20;0.20;;;5.60;99.90;;;;;;4927026;29;20214;-68
2023/03/07 09:47:53;;;;;;;1.60;1.60;;;5.60;99.90;;;;;;4921319;29;20202;-69
2023/03/07 09:50:28;;;;;;;9.77;1.77;;;5.70;99.90;;;;;;4929238;29;20658;-68
2023/03/07 09:53:01;;;;;;;4.70;0.85;;;5.70;99.90;;;;;;4926790;29;20213;-69
2023/03/07 09:55:30;;;;;;;0.20;0.20;;;5.70;99.90;;;;;;4924983;29;20294;-68
2023/03/07 09:58:00;;;;;;;1.23;1.23;;;5.70;99.90;;;;;;4928393;29;20223;-66
2023/03/07 10:00:31;;;;;;;0.57;0.50;;;5.70;99.90;;;;;;4920906;29;20218;-70
2023/03/07 10:03:12;;;;;;;1.00;1.00;;;5.70;99.90;;;;;;4923291;29;20631;-71
2023/03/07 10:05:42;;;;;;;0.10;0.10;;;5.70;99.90;;;;;;4942459;29;20229;-71
2023/03/07 10:08:15;;;;;;;0.50;0.45;;;5.70;99.90;;;;;;4947604;28;20214;-70
2023/03/07 10:10:43;;;;;;;0.63;0.43;;;5.70;99.90;;;;;;4930953;29;20233;-71
2023/03/07 10:13:31;;;;;;;0.40;0.40;;;5.70;99.90;;;;;;4932330;29;20210;-72
2023/03/07 10:16:01;;;;;;;0.50;0.50;;;5.70;99.90;;;;;;4924584;29;20214;-72
2023/03/07 10:18:42;;;;;;;0.50;0.50;;;5.80;99.90;;;;;;4930365;29;20228;-71
2023/03/07 10:21:19;;;;;;;0.20;0.20;;;5.90;99.90;;;;;;4929784;29;20273;-70
2023/03/07 10:24:12;;;;;;;0.65;0.52;;;5.90;99.90;;;;;;4920673;29;20214;-71
2023/03/07 10:26:44;;;;;;;0.45;0.45;;;6.00;99.90;;;;;;4926989;29;20217;-72
2023/03/07 10:29:14;;;;;;;0.70;0.70;;;6.10;99.90;;;;;;4923896;29;20237;-72
2023/03/07 10:31:45;;;;;;;0.20;0.20;;;6.10;99.90;;;;;;4920705;29;20285;-71
2023/03/07 10:34:16;;;;;;;0.70;0.70;;;6.20;99.90;;;;;;4926567;29;20217;-71
2023/03/07 10:36:45;;;;;;;1.27;0.50;;;6.30;99.90;;;;;;4929835;29;20958;-70
2023/03/07 10:39:22;;;;;;;0.68;0.68;;;6.40;99.90;;;;;;4923540;29;20316;-70
2023/03/07 10:41:49;;;;;;;0.30;0.30;;;6.60;99.90;;;;;;4919508;29;20283;-71
2023/03/07 10:44:18;;;;;;;2.20;0.77;;;6.50;99.90;;;;;;4928696;29;20206;-70
2023/03/07 10:46:46;;;;;;;0.20;0.20;;;6.50;99.90;;;;;;4932770;29;20628;-71
2023/03/07 10:49:17;;;;;;;0.20;0.20;;;6.60;99.90;;;;;;4925342;29;20320;-71
2023/03/07 10:51:51;;;;;;;0.40;0.40;;;6.60;99.90;;;;;;4922738;29;20229;-72
2023/03/07 10:54:22;;;;;;;2.25;0.55;;;6.70;99.90;;;;;;4930718;29;20210;-72
2023/03/07 10:57:04;;;;;;;0.30;0.30;;;6.70;99.90;;;;;;4927844;29;20214;-70
2023/03/07 10:59:31;;;;;;;0.50;0.50;;;6.70;99.90;;;;;;4925666;29;20210;-70
2023/03/07 11:01:59;;;;;;;2.28;0.30;;;6.60;99.90;;;;;;4930186;29;20237;-72
2023/03/07 11:04:29;;;;;;;0.20;0.20;;;6.50;99.90;;;;;;4930372;29;20206;-71
2023/03/07 11:06:57;;;;;;;0.20;0.20;;;5.90;99.90;;;;;;4937505;29;20212;-71
2023/03/07 11:09:28;;;;;;;0.10;0.10;;;5.00;99.90;;;;;;4917373;29;20230;-71
2023/03/07 11:11:57;;;;;;;0.10;0.10;;;4.30;99.90;;;;;;4918999;29;20257;-71
2023/03/07 11:14:25;;;;;;;2.65;0.65;;;3.80;99.90;;;;;;4933107;29;20213;-71
2023/03/07 11:16:54;;;;;;;0.20;0.20;;;3.50;99.90;;;;;;4946669;29;20655;-71
2023/03/07 11:19:36;;;;;;;0.10;0.10;;;3.40;99.90;;;;;;4953959;29;20209;-69
2023/03/07 11:22:15;;;;;;;0.10;0.10;;;3.30;99.90;;;;;;4948281;23;20218;-67
2023/03/07 11:24:50;;;;;;;0.85;0.20;;;3.40;99.90;;;;;;4961771;28;20213;-68
2023/03/07 11:27:22;;;;;;;0.38;0.38;;;3.50;99.90;;;;;;4966770;28;20255;-68
2023/03/07 11:30:15;;;;;;;0.10;0.10;;;3.60;99.90;;;;;;4965287;28;20228;-68
2023/03/07 11:32:49;;;;;;;0.20;0.20;;;3.80;99.90;;;;;;4966710;28;20232;-68
2023/03/07 11:35:21;;;;;;;0.20;0.20;;;3.90;99.90;;;;;;4973865;28;20223;-68
2023/03/07 11:37:56;;;;;;;0.30;0.30;;;4.00;99.90;;;;;;4975051;28;20549;-69
2023/03/07 11:40:26;;;;;;;0.47;0.40;;;4.10;99.90;;;;;;4966440;28;20204;-68
2023/03/07 11:43:05;;;;;;;0.20;0.20;;;4.20;99.90;;;;;;4974222;28;20229;-68
2023/03/07 11:45:39;;;;;;;0.55;0.55;;;4.30;99.90;;;;;;4947706;28;20216;-68
2023/03/07 11:48:23;;;;;;;1.23;1.23;;;4.40;99.90;;;;;;4945053;29;20209;-68
2023/03/07 11:50:56;;;;;;;0.50;0.50;;;4.60;99.90;;;;;;4954708;28;20702;-67
2023/03/07 11:53:40;;;;;;;0.40;0.40;;;4.60;99.90;;;;;;4956046;28;20257;-69
2023/03/07 11:56:24;;;;;;;1.23;0.55;;;4.70;99.90;;;;;;4945953;28;20205;-68
2023/03/07 11:59:36;;;;;;;1.15;0.60;;;4.80;99.90;;;;;;4964016;28;20201;-68
2023/03/07 12:02:17;;;;;;;1.10;1.10;;;4.90;99.90;;;;;;4944091;29;20242;-68
2023/03/07 12:05:14;;;;;;;3.08;1.20;;;4.90;99.90;;;;;;4948749;28;20592;-68
2023/03/07 12:08:12;;;;;;;0.47;0.47;;;4.80;99.90;;;;;;4937500;28;20205;-68
2023/03/07 12:10:50;;;;;;;0.50;0.50;;;4.60;99.90;;;;;;4948615;29;20310;-68
2023/03/07 12:13:31;;;;;;;0.40;0.40;;;4.40;99.90;;;;;;4954200;28;20613;-68
2023/03/07 12:16:07;;;;;;;0.55;0.55;;;4.40;99.90;;;;;;4955764;29;20205;-68
2023/03/07 12:19:00;;;;;;;1.75;0.70;;;4.40;99.90;;;;;;4959839;28;20200;-69
2023/03/07 12:21:45;;;;;;;0.50;0.50;;;4.60;99.90;;;;;;4950157;28;20218;-68
2023/03/07 12:24:19;;;;;;;1.10;0.50;;;4.70;99.90;;;;;;4957933;29;20217;-69
2023/03/07 12:26:52;;;;;;;13.38;1.98;;;4.80;99.90;;;;;;4953355;28;20198;-68
2023/03/07 12:29:31;;;;;;;0.47;0.47;;;4.80;99.90;;;;;;4947875;28;20205;-68
2023/03/07 12:32:02;;;;;;;23.13;1.58;;;4.90;99.90;;;;;;4949063;28;20568;-68
2023/03/07 12:34:36;;;;;;;0.47;0.47;;;4.90;99.90;;;;;;4949946;28;20210;-68
2023/03/07 12:37:06;;;;;;;0.30;0.30;;;4.90;99.90;;;;;;4941251;29;20204;-68
2023/03/07 12:39:44;;;;;;;2.70;1.15;;;5.00;99.90;;;;;;4946290;29;20267;-68
2023/03/07 12:42:18;;;;;;;2.92;1.17;;;5.10;99.90;;;;;;4944923;28;20299;-67
2023/03/07 12:44:50;;;;;;;0.63;0.50;;;5.10;99.90;;;;;;4942295;29;20240;-68
2023/03/07 12:47:23;;;;;;;0.30;0.30;;;5.20;99.90;;;;;;4947949;28;20201;-68
2023/03/07 12:49:55;;;;;;;0.30;0.30;;;5.20;99.90;;;;;;4939224;28;20228;-67
2023/03/07 12:52:31;;;;;;;2.58;0.75;;;5.20;99.90;;;;;;4950589;28;20245;-68
2023/03/07 12:55:04;;;;;;;0.95;0.73;;;5.30;99.90;;;;;;4936439;29;20213;-68
2023/03/07 12:57:35;;;;;;;1.00;0.55;;;5.30;99.90;;;;;;4941215;29;20214;-68
2023/03/07 13:00:11;;;;;;;10.73;1.67;;;5.30;99.90;;;;;;4935687;29;20217;-69
2023/03/07 13:02:44;;;;;;;0.20;0.20;;;5.30;99.90;;;;;;4943610;28;20225;-68
2023/03/07 13:05:19;;;;;;;0.57;0.57;;;5.40;99.90;;;;;;4935657;28;20237;-69
2023/03/07 13:07:47;;;;;;;1.90;0.90;;;5.50;99.90;;;;;;4939920;29;20232;-69
2023/03/07 13:10:18;;;;;;;0.20;0.20;;;5.60;99.90;;;;;;4960051;28;20220;-69
2023/03/07 13:12:45;;;;;;;0.50;0.50;;;5.60;99.90;;;;;;4948667;28;20236;-69
2023/03/07 13:16:01;;;;;;;2.40;2.30;;;5.60;99.90;;;;;;4944589;28;20209;-68
2023/03/07 13:18:30;;;;;;;0.73;0.73;;;5.70;99.90;;;;;;4941769;29;20226;-68
2023/03/07 13:21:30;;;;;;;0.40;0.40;;;5.70;99.90;;;;;;4944150;29;20197;-68
2023/03/07 13:24:31;;;;;;;0.20;0.20;;;5.70;99.90;;;;;;4937579;29;20618;-70
2023/03/07 13:26:59;;;;;;;4.30;0.93;;;5.70;99.90;;;;;;4946579;29;20224;-69
2023/03/07 13:29:59;;;;;;;0.50;0.50;;;5.80;99.90;;;;;;4953074;29;20216;-69
2023/03/07 13:32:56;;;;;;;2.85;0.95;;;5.80;99.90;;;;;;4946196;28;20325;-69
2023/03/07 13:35:54;;;;;;;1.65;1.65;;;5.70;99.90;;;;;;4939996;28;20222;-70
2023/03/07 13:38:40;;;;;;;0.20;0.20;;;5.70;99.90;;;;;;4952456;29;20223;-70
2023/03/07 13:41:09;;;;;;;0.75;0.70;;;5.80;99.90;;;;;;4955963;28;20231;-69
2023/03/07 13:43:58;;;;;;;0.50;0.50;;;5.80;99.90;;;;;;4945516;28;20233;-69
2023/03/07 13:46:47;;;;;;;5.75;0.75;;;5.80;99.90;;;;;;4940302;29;20216;-69
2023/03/07 13:49:37;;;;;;;2.70;0.60;;;5.80;99.90;;;;;;4930430;29;20249;-69
2023/03/07 13:52:32;;;;;;;0.68;0.68;;;5.70;99.90;;;;;;4941625;29;20229;-69
2023/03/07 13:55:01;;;;;;;1.00;0.52;;;5.60;99.90;;;;;;4911485;29;20658;-69
2023/03/07 13:57:35;;;;;;;1.42;0.73;;;5.60;99.90;;;;;;4942260;29;20661;-69
2023/03/07 14:00:04;;;;;;;0.25;0.25;;;5.60;99.90;;;;;;4941350;28;20209;-69
2023/03/07 14:02:33;;;;;;;0.17;0.17;;;5.50;99.90;;;;;;4942293;29;20229;-69
2023/03/07 14:05:03;;;;;;;0.63;0.63;;;5.50;99.90;;;;;;4941845;28;20693;-70
2023/03/07 14:07:34;;;;;;;0.75;0.60;;;5.50;99.90;;;;;;4949925;28;20229;-69
2023/03/07 14:10:05;;;;;;;2.75;0.57;;;5.40;99.90;;;;;;4942737;29;20887;-67
2023/03/07 14:12:45;;;;;;;0.85;0.80;;;5.40;99.90;;;;;;4952741;29;20221;-68
2023/03/07 14:15:24;;;;;;;1.23;0.63;;;5.40;99.90;;;;;;4956178;29;20208;-69
2023/03/07 14:18:09;;;;;;;0.50;0.50;;;5.50;99.90;;;;;;4952693;28;20209;-69
2023/03/07 14:20:49;;;;;;;4.70;0.88;;;5.60;99.90;;;;;;4949549;29;20268;-69
2023/03/07 14:23:29;;;;;;;0.85;0.75;;;5.70;99.90;;;;;;4952062;28;20240;-68
2023/03/07 14:26:09;;;;;;;0.50;0.50;;;5.70;99.90;;;;;;4951982;28;20243;-69
2023/03/07 14:28:35;;;;;;;17.13;0.68;;;5.80;99.90;;;;;;4947712;29;20344;-69
2023/03/07 14:31:04;;;;;;;0.63;0.63;;;5.90;99.90;;;;;;4952255;28;20562;-69
2023/03/07 14:33:32;;;;;;;2.25;2.05;;;6.00;99.90;;;;;;4941562;29;20238;-69
2023/03/07 14:36:01;;;;;;;0.20;0.20;;;6.00;99.90;;;;;;4945114;29;20288;-69
2023/03/07 14:38:28;;;;;;;0.30;0.30;;;6.10;99.90;;;;;;4951544;28;20217;-69
2023/03/07 14:41:13;;;;;;;0.30;0.30;;;6.10;99.90;;;;;;4952364;29;20205;-68
2023/03/07 14:43:51;;;;;;;0.40;0.40;;;6.10;99.90;;;;;;4952212;29;20225;-69
2023/03/07 14:46:28;;;;;;;1.20;0.90;;;6.00;99.90;;;;;;4947309;28;20293;-69
2023/03/07 14:49:07;;;;;;;0.30;0.30;;;5.90;99.90;;;;;;4963261;28;20207;-69
2023/03/07 14:51:39;;;;;;;0.10;0.10;;;5.70;99.90;;;;;;4938831;29;20229;-70
2023/03/07 14:54:10;;;;;;;0.43;0.35;;;5.60;99.90;;;;;;4941930;29;20229;-69
2023/03/07 14:56:37;;;;;;;3.72;1.25;;;5.50;99.90;;;;;;4958550;28;20220;-69
2023/03/07 14:59:05;;;;;;;0.90;0.90;;;5.40;99.90;;;;;;4950786;28;20202;-69
2023/03/07 15:01:34;;;;;;;1.20;0.57;;;5.40;99.90;;;;;;4941961;29;20194;-69
2023/03/07 15:04:02;;;;;;;0.30;0.30;;;5.30;99.90;;;;;;4948352;28;20660;-69
2023/03/07 15:06:30;;;;;;;0.20;0.20;;;5.30;99.90;;;;;;4954042;28;20209;-69
2023/03/07 15:09:03;;;;;;;1.42;1.42;;;5.30;99.90;;;;;;4946027;28;20324;-69
2023/03/07 15:11:34;;;;;;;0.20;0.20;;;5.30;99.90;;;;;;4946455;28;20225;-69
2023/03/07 15:14:05;;;;;;;2.85;0.75;;;5.40;99.90;;;;;;4950165;28;20225;-68
2023/03/07 15:16:36;;;;;;;8.75;0.70;;;5.30;99.90;;;;;;4943042;29;20277;-69
2023/03/07 15:19:08;;;;;;;0.40;0.40;;;5.40;99.90;;;;;;4944427;29;20198;-68
2023/03/07 15:21:39;;;;;;;0.20;0.20;;;5.40;99.90;;;;;;4943843;29;20302;-68
2023/03/07 15:24:17;;;;;;;0.30;0.30;;;5.40;99.90;;;;;;4943663;29;20284;-69
2023/03/07 15:26:49;;;;;;;0.30;0.30;;;5.40;99.90;;;;;;4948434;29;20205;-69
2023/03/07 15:29:16;;;;;;;0.40;0.40;;;5.40;99.90;;;;;;4955793;28;20296;-68
2023/03/07 15:31:50;;;;;;;0.30;0.30;;;5.30;99.90;;;;;;4946475;29;20605;-69
2023/03/07 15:34:23;;;;;;;0.10;0.10;;;5.20;99.90;;;;;;4952780;28;20658;-69
2023/03/07 15:36:50;;;;;;;0.20;0.20;;;5.00;99.90;;;;;;4950353;28;20662;-68
2023/03/07 15:39:31;;;;;;;0.43;0.40;;;4.60;99.90;;;;;;4945343;28;20206;-68
2023/03/07 15:42:01;;;;;;;0.28;0.28;;;4.40;99.90;;;;;;4937936;29;20743;-70
2023/03/07 15:44:28;;;;;;;0.45;0.45;;;4.30;99.90;;;;;;4945238;29;20225;-68
2023/03/07 15:46:58;;;;;;;0.40;0.40;;;4.10;99.90;;;;;;4947270;29;20227;-69
2023/03/07 15:49:30;;;;;;;0.20;0.20;;;4.20;99.90;;;;;;4945158;28;20209;-70
2023/03/07 15:51:59;;;;;;;0.22;0.22;;;4.10;99.90;;;;;;4938352;29;20279;-69
2023/03/07 15:54:35;;;;;;;0.22;0.22;;;4.10;99.90;;;;;;4944987;29;20213;-69
2023/03/07 15:57:04;;;;;;;0.50;0.50;;;4.10;99.90;;;;;;4950645;28;20225;-70
2023/03/07 15:59:34;;;;;;;0.20;0.20;;;4.10;99.90;;;;;;4944744;28;20210;-70
2023/03/07 16:02:34;;;;;;;0.20;0.20;;;4.10;99.90;;;;;;4936617;29;20205;-69
2023/03/07 16:05:02;;;;;;;0.52;0.52;;;4.00;99.90;;;;;;4944099;29;20208;-69
2023/03/07 16:07:30;;;;;;;0.25;0.17;;;4.00;99.90;;;;;;4939890;29;20391;-69
2023/03/07 16:09:58;;;;;;;3.13;0.43;;;3.90;99.90;;;;;;4949107;28;20213;-68
2023/03/07 16:12:25;;;;;;;0.73;0.73;;;3.90;99.90;;;;;;4953209;29;20319;-70
2023/03/07 16:14:54;;;;;;;0.38;0.38;;;3.90;99.90;;;;;;4943430;28;20241;-71
2023/03/07 16:17:26;;;;;;;0.30;0.30;;;3.80;99.90;;;;;;4949287;29;20221;-68
2023/03/07 16:19:53;;;;;;;0.10;0.10;;;3.80;99.90;;;;;;4945975;29;20202;-69
2023/03/07 16:22:21;;;;;;;0.52;0.52;;;3.80;99.90;;;;;;4962935;29;20243;-70
2023/03/07 16:24:48;;;;;;;0.20;0.20;;;3.70;99.90;;;;;;4947445;29;20590;-69
2023/03/07 16:27:19;;;;;;;0.20;0.20;;;3.70;99.90;;;;;;4951481;28;20217;-68
2023/03/07 16:29:46;;;;;;;0.20;0.20;;;3.70;99.90;;;;;;4956160;28;20214;-69
2023/03/07 16:32:15;;;;;;;0.30;0.30;;;3.70;99.90;;;;;;4957637;28;20238;-69
2023/03/07 16:34:42;;;;;;;0.63;0.60;;;3.70;99.90;;;;;;4945020;28;20213;-68
2023/03/07 16:37:09;;;;;;;0.20;0.20;;;3.70;99.90;;;;;;4935466;29;20213;-68
2023/03/07 16:39:36;;;;;;;0.30;0.30;;;3.70;99.90;;;;;;4943177;29;20206;-69
2023/03/07 16:42:05;;;;;;;0.47;0.47;;;3.60;99.90;;;;;;4950300;29;20202;-69
2023/03/07 16:44:39;;;;;;;0.50;0.50;;;3.60;99.90;;;;;;4945608;28;20671;-69
2023/03/07 16:47:08;;;;;;;0.52;0.52;;;3.60;99.90;;;;;;4946678;29;20205;-68
2023/03/07 16:49:35;;;;;;;2.05;0.75;;;3.60;99.90;;;;;;4941980;29;20214;-68
2023/03/07 16:52:02;;;;;;;1.02;0.93;;;3.50;99.90;;;;;;4944487;28;20217;-68
2023/03/07 16:54:29;;;;;;;0.95;0.95;;;3.50;99.90;;;;;;4945414;28;20213;-68
2023/03/07 16:56:57;;;;;;;0.30;0.30;;;3.50;99.90;;;;;;4952982;29;20212;-68
2023/03/07 16:59:27;;;;;;;0.30;0.30;;;3.50;99.90;;;;;;4945719;28;20213;-68
2023/03/07 17:01:55;;;;;;;0.55;0.55;;;3.40;99.90;;;;;;4941628;29;20641;-71
2023/03/07 17:04:21;;;;;;;0.45;0.45;;;3.40;99.90;;;;;;4948750;28;20221;-69
2023/03/07 17:06:48;;;;;;;0.30;0.30;;;3.30;99.90;;;;;;4954745;28;20712;-69
2023/03/07 17:09:15;;;;;;;0.20;0.20;;;3.30;99.90;;;;;;4945689;29;20209;-68
2023/03/07 17:11:46;;;;;;;0.40;0.40;;;3.30;99.90;;;;;;4937520;29;20241;-68
2023/03/07 17:14:16;;;;;;;0.17;0.17;;;3.30;99.90;;;;;;4947872;28;20205;-70
2023/03/07 17:16:45;;;;;;;0.10;0.10;;;3.30;99.90;;;;;;4944245;29;20217;-71
2023/03/07 17:19:23;;;;;;;0.77;0.77;;;3.20;99.90;;;;;;4949817;28;21334;-69
2023/03/07 17:21:49;;;;;;;0.30;0.30;;;3.20;99.90;;;;;;4949973;28;20216;-68
2023/03/07 17:24:16;;;;;;;2.80;1.10;;;3.20;99.90;;;;;;4958318;28;20216;-68
2023/03/07 17:26:44;;;;;;;3.78;1.25;;;3.20;99.90;;;;;;4948042;29;20217;-69
2023/03/07 17:29:17;;;;;;;1.88;1.88;;;3.20;99.90;;;;;;4951965;28;20248;-69
2023/03/07 17:31:43;;;;;;;3.38;3.13;;;3.20;99.90;;;;;;4947377;28;20229;-69
2023/03/07 17:34:17;;;;;;;2.03;1.92;;;3.30;99.90;;;;;;4947612;29;20221;-69
2023/03/07 17:36:45;;;;;;;3.65;3.15;;;3.30;99.90;;;;;;4942451;29;20194;-68
2023/03/07 17:39:12;;;;;;;1.05;0.65;;;3.30;99.90;;;;;;4948375;28;20224;-68
2023/03/07 17:41:39;;;;;;;0.60;0.60;;;3.30;99.90;;;;;;4944181;29;20210;-68
2023/03/07 17:44:05;;;;;;;0.82;0.82;;;3.20;99.90;;;;;;4947746;28;20233;-68
2023/03/07 17:46:32;;;;;;;1.55;0.70;;;3.20;99.90;;;;;;4943001;29;20629;-69
2023/03/07 17:48:59;;;;;;;2.65;2.45;;;3.10;99.90;;;;;;4944072;28;20213;-68
2023/03/07 17:51:25;;;;;;;3.63;1.73;;;3.10;99.90;;;;;;4943156;29;20222;-68
2023/03/07 17:53:54;;;;;;;0.32;0.32;;;3.10;99.90;;;;;;4943760;28;20624;-69
2023/03/07 17:56:21;;;;;;;2.03;1.92;;;3.10;99.90;;;;;;4940408;29;20221;-69
2023/03/07 17:58:48;;;;;;;1.25;0.98;;;3.10;99.90;;;;;;4953318;28;20204;-68
2023/03/07 18:01:15;;;;;;;0.40;0.40;;;3.10;99.90;;;;;;4959129;28;20210;-68
2023/03/07 18:03:42;;;;;;;7.40;0.93;;;3.10;99.90;;;;;;4948785;29;20229;-68
2023/03/07 18:06:09;;;;;;;3.00;2.80;;;3.10;99.90;;;;;;4949620;28;20222;-67
2023/03/07 18:08:36;;;;;;;3.10;1.15;;;3.10;99.90;;;;;;4951493;29;20205;-67
2023/03/07 18:11:06;;;;;;;0.20;0.20;;;3.10;99.90;;;;;;4944995;28;20642;-68
2023/03/07 18:13:33;;;;;;;0.25;0.25;;;3.10;99.90;;;;;;4941608;28;20245;-68
2023/03/07 18:16:00;;;;;;;0.30;0.30;;;3.10;99.90;;;;;;4949913;28;20201;-70
2023/03/07 18:18:31;;;;;;;0.28;0.28;;;3.10;99.90;;;;;;4945554;28;20252;-69
2023/03/07 18:20:59;;;;;;;1.50;1.30;;;3.10;99.90;;;;;;4946020;29;20228;-68